Time;durP1;ratioP1;P1;durP2;ratioP2;P2;SDS_P1;SDS_P2;PMS_P1;PMS_P2;Temp;Humidity;BMP_temperature;BMP_pressure;BME280_temperature;BME280_humidity;BME280_pressure;Samples;Min_cycle;Max_cycle;Signal;HPM_P1;HPM_P2
2024/03/23 00:01:35;;;;;;;16.10;5.17;;;;;6.60;100654.00;;;;10304115;28;20235;-76
2024/03/23 00:06:36;;;;;;;10.27;4.77;;;;;6.60;100636.00;;;;10299915;28;20243;-76
2024/03/23 00:11:37;;;;;;;15.80;4.60;;;;;6.60;100659.00;;;;10320123;28;20225;-77
2024/03/23 00:16:38;;;;;;;12.73;4.90;;;;;6.60;100643.00;;;;10291257;28;20373;-77
2024/03/23 00:21:40;;;;;;;12.33;4.83;;;;;6.60;100646.00;;;;10315440;28;20912;-77
2024/03/23 00:26:41;;;;;;;19.67;5.57;;;;;6.60;100642.00;;;;10342196;28;20224;-78
2024/03/23 00:31:42;;;;;;;11.20;4.30;;;;;6.60;100659.00;;;;10310877;28;20311;-78
2024/03/23 00:36:44;;;;;;;17.90;4.93;;;;;6.60;100652.00;;;;10317209;28;20223;-78
2024/03/23 00:41:45;;;;;;;15.33;5.00;;;;;6.70;100652.00;;;;10328074;28;20232;-79
2024/03/23 00:46:46;;;;;;;18.70;5.80;;;;;6.70;100634.00;;;;10328810;28;20227;-78
2024/03/23 00:51:47;;;;;;;13.63;4.77;;;;;6.60;100636.00;;;;10304000;28;20276;-79
2024/03/23 00:56:48;;;;;;;12.27;5.20;;;;;6.60;100635.00;;;;10318453;28;20315;-77
2024/03/23 01:01:49;;;;;;;15.43;5.23;;;;;6.60;100630.00;;;;10321625;28;20319;-79
2024/03/23 01:06:50;;;;;;;16.63;4.50;;;;;6.60;100627.00;;;;10312019;28;20231;-78
2024/03/23 01:11:51;;;;;;;14.80;4.47;;;;;6.60;100622.00;;;;10332291;28;20234;-83
2024/03/23 01:16:52;;;;;;;16.53;5.63;;;;;6.70;100609.00;;;;10319085;28;20226;-83
2024/03/23 01:21:54;;;;;;;10.47;5.53;;;;;6.60;100610.00;;;;10330527;28;20251;-83
2024/03/23 01:26:55;;;;;;;16.67;5.40;;;;;6.50;100599.00;;;;10302788;28;20318;-83
2024/03/23 01:31:56;;;;;;;15.87;5.63;;;;;6.40;100588.00;;;;10331532;28;20314;-83
2024/03/23 01:36:57;;;;;;;13.93;5.53;;;;;6.30;100590.00;;;;10310811;28;20246;-84
2024/03/23 01:41:58;;;;;;;13.53;5.00;;;;;6.20;100592.00;;;;10309494;28;20883;-83
2024/03/23 01:46:59;;;;;;;9.97;4.97;;;;;6.00;100583.00;;;;10317457;28;20230;-81
2024/03/23 01:52:02;;;;;;;19.87;5.50;;;;;5.90;100595.00;;;;10300850;28;20932;-82
2024/03/23 01:57:04;;;;;;;14.33;5.63;;;;;5.80;100576.00;;;;10316163;28;20874;-83
2024/03/23 02:02:05;;;;;;;16.33;5.03;;;;;5.70;100590.00;;;;10318514;28;21294;-78
2024/03/23 02:07:07;;;;;;;15.77;5.43;;;;;5.70;100580.00;;;;10298773;28;20262;-78
2024/03/23 02:12:08;;;;;;;16.27;6.00;;;;;5.80;100566.00;;;;10303001;28;20305;-78
2024/03/23 02:17:10;;;;;;;18.13;8.70;;;;;5.90;100575.00;;;;10328594;28;20219;-77
2024/03/23 02:22:11;;;;;;;22.80;9.43;;;;;6.10;100569.00;;;;10313517;28;20237;-78
2024/03/23 02:27:12;;;;;;;25.97;9.70;;;;;6.20;100569.00;;;;10295229;28;20888;-77
2024/03/23 02:32:13;;;;;;;30.73;11.60;;;;;6.30;100569.00;;;;10296929;28;20239;-79
2024/03/23 02:37:14;;;;;;;22.73;10.33;;;;;6.40;100591.00;;;;10310295;28;20254;-78
2024/03/23 02:42:17;;;;;;;21.90;9.33;;;;;6.40;100589.00;;;;10300647;28;20231;-78
2024/03/23 02:47:18;;;;;;;23.10;10.60;;;;;6.40;100583.00;;;;10301330;28;20289;-78
2024/03/23 02:52:19;;;;;;;24.27;10.37;;;;;6.40;100574.00;;;;10300906;28;20228;-79
2024/03/23 02:57:21;;;;;;;25.23;9.90;;;;;6.40;100571.00;;;;10315934;28;20310;-78
2024/03/23 03:02:22;;;;;;;25.63;10.27;;;;;6.40;100566.00;;;;10315288;28;20239;-78
2024/03/23 03:07:23;;;;;;;24.90;10.57;;;;;6.40;100572.00;;;;10299972;28;22448;-78
2024/03/23 03:12:24;;;;;;;30.70;9.70;;;;;6.40;100574.00;;;;10338753;28;20223;-78
2024/03/23 03:17:25;;;;;;;25.43;10.47;;;;;6.30;100564.00;;;;10299865;28;20224;-78
2024/03/23 03:22:26;;;;;;;27.37;8.83;;;;;6.30;100557.00;;;;10315678;28;20238;-77
2024/03/23 03:27:28;;;;;;;29.60;10.23;;;;;6.30;100568.00;;;;10321772;28;20223;-78
2024/03/23 03:32:29;;;;;;;27.70;11.20;;;;;6.30;100565.00;;;;10321321;28;20223;-79
2024/03/23 03:37:30;;;;;;;21.93;9.70;;;;;6.20;100559.00;;;;10321876;28;20215;-78
2024/03/23 03:42:31;;;;;;;23.83;10.03;;;;;6.20;100554.00;;;;10334608;28;20220;-78
2024/03/23 03:47:33;;;;;;;27.47;11.20;;;;;6.20;100547.00;;;;10305272;28;20238;-78
2024/03/23 03:52:34;;;;;;;23.70;10.27;;;;;6.10;100543.00;;;;10324649;28;20219;-78
2024/03/23 03:57:35;;;;;;;32.77;11.30;;;;;6.10;100541.00;;;;10318266;28;20318;-79
2024/03/23 04:02:37;;;;;;;26.13;10.27;;;;;6.00;100562.00;;;;10322396;28;20329;-78
2024/03/23 04:07:38;;;;;;;24.70;10.17;;;;;6.00;100572.00;;;;10303790;28;20314;-79
2024/03/23 04:12:40;;;;;;;24.67;11.77;;;;;5.90;100576.00;;;;10301012;28;20218;-79
2024/03/23 04:17:42;;;;;;;29.17;12.47;;;;;6.00;100568.00;;;;10322340;28;20309;-78
2024/03/23 04:22:44;;;;;;;40.40;13.10;;;;;6.00;100567.00;;;;10323351;28;20226;-78
2024/03/23 04:27:45;;;;;;;34.27;15.37;;;;;6.00;100568.00;;;;10305751;28;20311;-79
2024/03/23 04:32:47;;;;;;;36.10;13.97;;;;;6.10;100583.00;;;;10307050;28;20239;-78
2024/03/23 04:37:48;;;;;;;35.27;14.80;;;;;6.10;100579.00;;;;10321438;28;20254;-80
2024/03/23 04:42:49;;;;;;;32.87;14.60;;;;;6.10;100575.00;;;;10321670;28;20593;-78
2024/03/23 04:47:51;;;;;;;27.10;14.00;;;;;6.10;100588.00;;;;10301241;28;20238;-78
2024/03/23 04:52:52;;;;;;;29.97;12.93;;;;;6.10;100576.00;;;;10315971;28;20310;-79
2024/03/23 04:57:53;;;;;;;31.03;10.93;;;;;6.10;100575.00;;;;10298779;28;20235;-79
2024/03/23 05:02:54;;;;;;;28.90;11.57;;;;;5.90;100575.00;;;;10314421;28;20239;-78
2024/03/23 05:07:55;;;;;;;23.20;10.40;;;;;5.80;100570.00;;;;10331095;28;20968;-78
2024/03/23 05:12:56;;;;;;;20.27;8.33;;;;;5.70;100579.00;;;;10304143;28;20341;-79
2024/03/23 05:17:57;;;;;;;25.97;8.63;;;;;5.60;100587.00;;;;10331347;28;20730;-78
2024/03/23 05:22:58;;;;;;;18.07;9.27;;;;;5.50;100581.00;;;;10298493;28;20269;-78
2024/03/23 05:28:00;;;;;;;29.03;8.67;;;;;5.40;100575.00;;;;10302284;28;20807;-78
2024/03/23 05:33:01;;;;;;;19.93;8.50;;;;;5.40;100582.00;;;;10332340;28;20222;-78
2024/03/23 05:38:02;;;;;;;17.23;8.87;;;;;5.40;100586.00;;;;10306009;28;20285;-78
2024/03/23 05:43:04;;;;;;;31.53;10.50;;;;;5.40;100598.00;;;;10319519;28;20227;-82
2024/03/23 05:48:05;;;;;;;26.20;10.27;;;;;5.40;100597.00;;;;10301306;28;20843;-82
2024/03/23 05:53:06;;;;;;;26.63;11.07;;;;;5.50;100586.00;;;;10299839;28;20242;-82
2024/03/23 05:58:08;;;;;;;35.00;12.77;;;;;5.60;100600.00;;;;10300113;28;20274;-81
2024/03/23 06:03:12;;;;;;;31.83;11.53;;;;;5.80;100595.00;;;;10302395;28;20223;-80
2024/03/23 06:08:15;;;;;;;25.63;11.87;;;;;6.00;100594.00;;;;10316926;28;20219;-80
2024/03/23 06:13:17;;;;;;;22.10;9.10;;;;;6.20;100596.00;;;;10304389;28;20227;-81
2024/03/23 06:18:18;;;;;;;24.17;9.10;;;;;6.20;100606.00;;;;10300994;28;20310;-81
2024/03/23 06:23:20;;;;;;;22.87;8.80;;;;;6.20;100607.00;;;;10318997;28;20302;-81
2024/03/23 06:28:21;;;;;;;20.90;7.83;;;;;6.30;100610.00;;;;10305127;28;20251;-81
2024/03/23 06:33:23;;;;;;;19.33;7.07;;;;;6.30;100622.00;;;;10300698;28;20224;-81
2024/03/23 06:38:24;;;;;;;26.53;6.70;;;;;6.40;100609.00;;;;10325755;28;20223;-81
2024/03/23 06:43:25;;;;;;;17.43;5.73;;;;;6.60;100626.00;;;;10296514;28;20227;-81
2024/03/23 06:48:27;;;;;;;18.20;5.63;;;;;6.70;100624.00;;;;10339965;28;20251;-80
2024/03/23 06:53:28;;;;;;;15.23;5.23;;;;;7.00;100634.00;;;;10318799;28;20267;-79
2024/03/23 06:58:29;;;;;;;21.77;6.03;;;;;7.10;100637.00;;;;10328216;28;20767;-80
2024/03/23 07:03:30;;;;;;;18.53;5.67;;;;;7.50;100631.00;;;;10300766;28;20234;-80
2024/03/23 07:08:31;;;;;;;16.80;4.00;;;;;8.10;100642.00;;;;10350510;28;20749;-80
2024/03/23 07:13:32;;;;;;;14.93;4.23;;;;;7.60;100643.00;;;;10320735;28;20298;-81
2024/03/23 07:18:34;;;;;;;18.67;3.47;;;;;7.10;100645.00;;;;10303053;28;20302;-80
2024/03/23 07:23:35;;;;;;;20.67;4.17;;;;;7.10;100650.00;;;;10324705;28;20231;-80
2024/03/23 07:28:37;;;;;;;14.93;3.17;;;;;6.80;100647.00;;;;10310236;28;20219;-80
2024/03/23 07:33:46;;;;;;;10.47;3.17;;;;;7.00;100649.00;;;;10310642;28;20250;-79
2024/03/23 07:38:47;;;;;;;10.47;3.63;;;;;7.10;100645.00;;;;10316767;28;20354;-79
2024/03/23 07:44:00;;;;;;;7.90;3.63;;;;;7.40;100647.00;;;;10302485;28;20231;-80
2024/03/23 07:49:01;;;;;;;14.70;4.67;;;;;8.30;100646.00;;;;10317148;28;20218;-80
2024/03/23 07:54:03;;;;;;;13.90;3.27;;;;;8.60;100653.00;;;;10318088;28;20851;-80
2024/03/23 07:59:04;;;;;;;9.50;3.97;;;;;8.40;100645.00;;;;10303580;28;20298;-78
2024/03/23 08:04:06;;;;;;;15.20;4.27;;;;;8.60;100648.00;;;;10308755;28;20227;-78
2024/03/23 08:09:07;;;;;;;13.67;3.53;;;;;8.90;100646.00;;;;10308430;28;20223;-77
2024/03/23 08:14:08;;;;;;;10.70;3.57;;;;;9.40;100631.00;;;;10302580;28;20235;-78
2024/03/23 08:19:09;;;;;;;14.63;3.03;;;;;10.00;100637.00;;;;10334615;28;20719;-78
2024/03/23 08:24:10;;;;;;;9.70;3.17;;;;;10.30;100644.00;;;;10320705;28;20334;-78
2024/03/23 08:29:11;;;;;;;11.83;2.93;;;;;10.30;100637.00;;;;10312914;28;20313;-78
2024/03/23 08:34:12;;;;;;;9.50;2.90;;;;;10.00;100649.00;;;;10301888;28;20216;-78
2024/03/23 08:39:14;;;;;;;14.70;5.10;;;;;9.80;100638.00;;;;10299934;28;20211;-78
2024/03/23 08:44:22;;;;;;;12.77;3.60;;;;;10.40;100644.00;;;;10329152;28;20227;-79
2024/03/23 08:49:23;;;;;;;11.67;3.03;;;;;9.90;100636.00;;;;10302877;28;20283;-78
2024/03/23 08:54:29;;;;;;;11.00;3.53;;;;;9.90;100637.00;;;;10317073;28;20314;-78
2024/03/23 08:59:30;;;;;;;14.43;3.77;;;;;10.80;100627.00;;;;10295278;28;20225;-78
2024/03/23 09:04:31;;;;;;;10.37;2.43;;;;;11.30;100632.00;;;;10317819;28;20318;-78
2024/03/23 09:09:32;;;;;;;9.50;2.67;;;;;11.90;100627.00;;;;10308069;28;20866;-80
2024/03/23 09:14:34;;;;;;;10.67;3.00;;;;;11.20;100638.00;;;;10319899;28;20211;-79
2024/03/23 09:19:35;;;;;;;6.80;2.20;;;;;11.10;100633.00;;;;10317621;28;20220;-80
2024/03/23 09:24:36;;;;;;;9.27;2.43;;;;;11.10;100645.00;;;;10317186;28;20227;-79
2024/03/23 09:29:37;;;;;;;9.63;2.53;;;;;10.50;100636.00;;;;10317307;28;20545;-78
2024/03/23 09:34:39;;;;;;;10.83;2.87;;;;;10.20;100632.00;;;;10310598;28;20238;-79
2024/03/23 09:39:41;;;;;;;8.10;2.43;;;;;10.90;100619.00;;;;10301394;28;20212;-79
2024/03/23 09:44:44;;;;;;;8.90;2.70;;;;;12.10;100609.00;;;;10300992;28;20223;-80
2024/03/23 09:49:45;;;;;;;9.60;2.30;;;;;13.00;100612.00;;;;10305815;28;20308;-79
2024/03/23 09:54:46;;;;;;;8.80;2.20;;;;;12.30;100611.00;;;;10343508;28;20219;-79
2024/03/23 09:59:47;;;;;;;7.03;2.63;;;;;11.90;100611.00;;;;10292942;28;20347;-80
2024/03/23 10:04:48;;;;;;;10.53;2.67;;;;;12.00;100605.00;;;;10286258;28;20302;-79
2024/03/23 10:09:52;;;;;;;6.77;2.37;;;;;12.50;100613.00;;;;10315514;28;20282;-80
2024/03/23 10:14:54;;;;;;;11.73;3.03;;;;;12.30;100598.00;;;;10314374;28;20227;-80
2024/03/23 10:19:56;;;;;;;6.80;2.43;;;;;11.90;100590.00;;;;10293085;28;20281;-78
2024/03/23 10:25:08;;;;;;;7.20;2.80;;;;;12.00;100591.00;;;;10325216;28;20235;-80
2024/03/23 10:30:09;;;;;;;6.67;2.70;;;;;11.50;100591.00;;;;10350862;28;20238;-77
2024/03/23 10:35:23;;;;;;;4.87;2.70;;;;;13.10;100577.00;;;;10323506;28;20220;-78
2024/03/23 10:40:26;;;;;;;7.33;2.73;;;;;14.40;100571.00;;;;10329574;28;20219;-79
2024/03/23 10:45:27;;;;;;;7.32;2.45;;;;;12.80;100581.00;;;;10310914;28;20326;-79
2024/03/23 10:50:28;;;;;;;4.22;2.08;;;;;14.20;100561.00;;;;10325142;28;20231;-79
2024/03/23 10:55:30;;;;;;;4.50;2.17;;;;;15.90;100560.00;;;;10324118;28;20311;-79
2024/03/23 11:00:32;;;;;;;6.97;2.20;;;;;16.80;100559.00;;;;10336298;28;20309;-77
2024/03/23 11:05:34;;;;;;;7.22;2.17;;;;;16.40;100557.00;;;;10313177;28;20604;-78
2024/03/23 11:10:36;;;;;;;8.95;2.50;;;;;14.80;100552.00;;;;10324336;28;20656;-79
2024/03/23 11:15:37;;;;;;;4.93;1.80;;;;;16.20;100543.00;;;;10292939;28;20212;-79
2024/03/23 11:20:38;;;;;;;5.47;1.58;;;;;16.50;100551.00;;;;10325324;28;20841;-79
2024/03/23 11:25:39;;;;;;;3.75;1.30;;;;;16.60;100527.00;;;;10315765;28;20223;-79
2024/03/23 11:30:40;;;;;;;7.38;1.40;;;;;16.60;100539.00;;;;10296833;28;20228;-78
2024/03/23 11:35:42;;;;;;;4.70;1.30;;;;;15.60;100549.00;;;;10318916;28;20863;-80
2024/03/23 11:40:48;;;;;;;6.53;1.50;;;;;14.40;100510.00;;;;10331570;28;20223;-79
2024/03/23 11:45:52;;;;;;;6.22;1.65;;;;;13.20;100498.00;;;;10314674;28;20921;-78
2024/03/23 11:50:57;;;;;;;6.80;1.27;;;;;15.70;100503.00;;;;10312472;28;20227;-80
2024/03/23 11:56:03;;;;;;;3.17;1.20;;;;;15.00;100501.00;;;;10324728;28;20350;-79
2024/03/23 12:01:05;;;;;;;3.03;1.42;;;;;16.30;100513.00;;;;10291636;28;20234;-80
2024/03/23 12:06:07;;;;;;;9.23;1.60;;;;;14.90;100488.00;;;;10314637;28;20298;-80
2024/03/23 12:11:11;;;;;;;7.45;1.63;;;;;15.90;100493.00;;;;10331437;28;20239;-79
2024/03/23 12:16:17;;;;;;;5.90;1.08;;;;;14.60;100493.00;;;;10326336;28;20363;-79
2024/03/23 12:21:19;;;;;;;4.53;1.58;;;;;14.50;100489.00;;;;10342852;28;20234;-79
2024/03/23 12:26:20;;;;;;;5.15;1.50;;;;;13.30;100480.00;;;;10326763;28;20250;-79
2024/03/23 12:31:21;;;;;;;5.35;1.35;;;;;14.20;100482.00;;;;10321926;28;20258;-77
2024/03/23 12:36:22;;;;;;;3.83;1.30;;;;;14.50;100477.00;;;;10322537;28;20227;-81
2024/03/23 12:41:24;;;;;;;3.42;0.90;;;;;15.00;100473.00;;;;10315587;28;20226;-80
2024/03/23 12:46:25;;;;;;;3.95;1.13;;;;;14.80;100479.00;;;;10302744;28;20302;-81
2024/03/23 12:51:26;;;;;;;6.28;1.80;;;;;14.60;100468.00;;;;10317452;28;20219;-81
2024/03/23 12:56:33;;;;;;;5.82;1.40;;;;;14.80;100456.00;;;;10325069;28;20289;-82
2024/03/23 13:01:34;;;;;;;4.43;1.08;;;;;15.00;100443.00;;;;10317399;28;20581;-82
2024/03/23 13:06:35;;;;;;;5.25;1.80;;;;;14.40;100453.00;;;;10315252;28;20865;-81
2024/03/23 13:11:36;;;;;;;4.47;1.35;;;;;14.10;100438.00;;;;10322262;28;20332;-82
2024/03/23 13:16:37;;;;;;;7.78;1.38;;;;;14.10;100444.00;;;;10335472;28;20290;-81
2024/03/23 13:21:39;;;;;;;5.88;1.08;;;;;12.60;100449.00;;;;10274542;28;20246;-81
2024/03/23 13:26:40;;;;;;;6.75;1.58;;;;;12.30;100439.00;;;;10304518;28;20574;-81
2024/03/23 13:31:41;;;;;;;6.37;1.70;;;;;11.30;100455.00;;;;10316832;28;20224;-81
2024/03/23 13:36:43;;;;;;;6.20;1.40;;;;;10.50;100446.00;;;;10318422;28;20306;-81
2024/03/23 13:41:45;;;;;;;4.30;1.27;;;;;10.80;100446.00;;;;10330948;28;20228;-81
2024/03/23 13:46:47;;;;;;;5.90;1.63;;;;;12.50;100443.00;;;;10299224;28;20243;-80
2024/03/23 13:51:48;;;;;;;6.60;1.57;;;;;12.00;100436.00;;;;10301955;28;20242;-83
2024/03/23 13:56:50;;;;;;;4.70;1.47;;;;;11.40;100438.00;;;;10301797;28;20227;-80
2024/03/23 14:01:51;;;;;;;5.53;1.50;;;;;10.40;100422.00;;;;10296019;28;20278;-81
2024/03/23 14:06:57;;;;;;;3.17;1.10;;;;;9.50;100441.00;;;;10240908;28;20280;-81
2024/03/23 14:12:00;;;;;;;3.93;1.83;;;;;8.30;100449.00;;;;10276665;28;20243;-85
2024/03/23 14:17:01;;;;;;;3.47;1.00;;;;;7.90;100424.00;;;;10261335;28;20239;-85
2024/03/23 14:22:03;;;;;;;4.40;1.03;;;;;7.70;100409.00;;;;10289072;28;20769;-84
2024/03/23 14:27:05;;;;;;;3.97;1.30;;;;;10.40;100338.00;;;;10278689;28;20239;-81
2024/03/23 14:32:06;;;;;;;5.57;1.57;;;;;13.90;100324.00;;;;10277963;28;20323;-81
2024/03/23 14:37:07;;;;;;;8.17;2.10;;;;;15.20;100348.00;;;;10298791;28;20229;-80
2024/03/23 14:42:09;;;;;;;4.50;1.93;;;;;15.10;100351.00;;;;10277583;28;20224;-80
2024/03/23 14:47:10;;;;;;;4.73;1.83;;;;;12.10;100387.00;;;;10264138;28;20796;-80
2024/03/23 14:52:11;;;;;;;4.57;2.03;;;;;10.40;100373.00;;;;10294938;28;20231;-81
2024/03/23 14:57:13;;;;;;;9.23;2.20;;;;;11.20;100360.00;;;;10275472;28;20702;-80
2024/03/23 15:02:14;;;;;;;7.27;1.67;;;;;11.20;100349.00;;;;10276751;28;20322;-79
2024/03/23 15:07:16;;;;;;;6.23;3.00;;;;;11.70;100348.00;;;;10280256;28;20227;-79
2024/03/23 15:12:17;;;;;;;8.30;1.33;;;;;13.40;100315.00;;;;10295497;28;20905;-80
2024/03/23 15:17:18;;;;;;;8.47;1.83;;;;;12.20;100339.00;;;;10261487;28;20224;-81
2024/03/23 15:22:21;;;;;;;7.33;1.30;;;;;12.50;100311.00;;;;10299418;28;20322;-79
2024/03/23 15:27:22;;;;;;;4.00;1.37;;;;;12.70;100320.00;;;;10279369;28;20302;-80
2024/03/23 15:32:23;;;;;;;6.00;1.27;;;;;12.80;100302.00;;;;10256741;28;20247;-80
2024/03/23 15:37:24;;;;;;;6.53;1.20;;;;;13.00;100306.00;;;;10294707;28;20270;-81
2024/03/23 15:42:25;;;;;;;6.03;1.50;;;;;13.10;100300.00;;;;10280239;28;20231;-80
2024/03/23 15:47:26;;;;;;;9.20;1.43;;;;;12.40;100305.00;;;;10283690;28;20870;-80
2024/03/23 15:52:27;;;;;;;6.57;1.57;;;;;11.90;100304.00;;;;10279468;28;20367;-80
2024/03/23 15:57:29;;;;;;;2.73;0.97;;;;;12.50;100296.00;;;;10261764;28;20988;-81
2024/03/23 16:02:30;;;;;;;9.13;2.20;;;;;10.60;100303.00;;;;10306637;28;20236;-81
2024/03/23 16:07:35;;;;;;;3.47;1.57;;;;;10.00;100304.00;;;;10274612;28;20226;-81
2024/03/23 16:12:36;;;;;;;7.30;1.73;;;;;9.50;100309.00;;;;10283815;28;20303;-80
2024/03/23 16:17:40;;;;;;;5.17;1.60;;;;;9.60;100302.00;;;;10296864;28;20792;-80
2024/03/23 16:22:41;;;;;;;7.87;1.63;;;;;9.40;100309.00;;;;10268075;28;20273;-79
2024/03/23 16:27:42;;;;;;;6.27;1.63;;;;;9.20;100303.00;;;;10281309;28;20258;-80
2024/03/23 16:32:43;;;;;;;6.63;1.50;;;;;9.20;100302.00;;;;10275368;28;20786;-80
2024/03/23 16:37:46;;;;;;;6.53;1.50;;;;;9.10;100301.00;;;;10280379;28;20266;-80
2024/03/23 16:42:47;;;;;;;8.97;2.60;;;;;9.30;100294.00;;;;10280982;28;20232;-80
2024/03/23 16:47:49;;;;;;;8.93;2.13;;;;;9.60;100292.00;;;;10281281;28;20232;-81
2024/03/23 16:52:50;;;;;;;9.40;1.63;;;;;9.40;100285.00;;;;10274421;28;20254;-80
2024/03/23 16:57:51;;;;;;;10.30;1.77;;;;;9.20;100295.00;;;;10258475;28;20234;-80
2024/03/23 17:02:52;;;;;;;20.20;10.13;;;;;9.00;100288.00;;;;10257277;28;20235;-80
2024/03/23 17:07:56;;;;;;;9.07;1.90;;;;;8.90;100287.00;;;;10290518;28;20357;-80
2024/03/23 17:12:57;;;;;;;6.80;2.13;;;;;8.90;100293.00;;;;10279916;28;20307;-81
2024/03/23 17:17:58;;;;;;;4.33;1.50;;;;;8.80;100289.00;;;;10284358;28;20250;-80
2024/03/23 17:23:01;;;;;;;6.10;1.57;;;;;8.10;100290.00;;;;10299453;28;20369;-80
2024/03/23 17:28:02;;;;;;;4.83;1.40;;;;;7.70;100283.00;;;;10277220;28;20250;-80
2024/03/23 17:33:03;;;;;;;5.27;1.60;;;;;7.50;100303.00;;;;10280348;28;20296;-82
2024/03/23 17:38:04;;;;;;;8.87;1.60;;;;;7.40;100301.00;;;;10278157;28;20302;-80
2024/03/23 17:43:05;;;;;;;6.90;2.43;;;;;7.40;100299.00;;;;10275151;28;20219;-81
2024/03/23 17:48:07;;;;;;;5.70;1.57;;;;;6.60;100320.00;;;;10274193;28;20971;-78
2024/03/23 17:53:08;;;;;;;0.77;0.77;;;;;5.80;100333.00;;;;10264335;28;20224;-78
2024/03/23 17:58:09;;;;;;;2.27;0.93;;;;;5.30;100357.00;;;;10300128;28;20890;-78
2024/03/23 18:03:10;;;;;;;1.40;0.80;;;;;5.00;100386.00;;;;10258274;28;20255;-79
2024/03/23 18:08:11;;;;;;;3.77;1.30;;;;;4.80;100401.00;;;;10279080;28;20307;-78
2024/03/23 18:13:13;;;;;;;3.17;1.03;;;;;4.70;100421.00;;;;10280852;28;20318;-77
2024/03/23 18:18:14;;;;;;;8.30;2.00;;;;;4.70;100374.00;;;;10274597;28;20223;-78
2024/03/23 18:23:15;;;;;;;3.13;1.03;;;;;4.70;100371.00;;;;10304229;28;20267;-78
2024/03/23 18:28:16;;;;;;;3.83;1.40;;;;;4.60;100370.00;;;;10278857;28;20366;-81
2024/03/23 18:33:17;;;;;;;2.97;1.10;;;;;4.50;100379.00;;;;10278168;28;20223;-81
2024/03/23 18:38:19;;;;;;;4.93;1.60;;;;;4.60;100375.00;;;;10264578;28;20287;-80
2024/03/23 18:43:20;;;;;;;5.37;3.10;;;;;4.80;100383.00;;;;10286739;28;20264;-82
2024/03/23 18:48:22;;;;;;;3.97;1.67;;;;;4.90;100400.00;;;;10286960;28;20220;-83
2024/03/23 18:53:23;;;;;;;4.90;1.50;;;;;4.90;100394.00;;;;10287153;28;20247;-82
2024/03/23 18:58:24;;;;;;;3.33;1.30;;;;;4.90;100401.00;;;;10277199;28;20216;-82
2024/03/23 19:03:26;;;;;;;7.67;2.23;;;;;4.90;100387.00;;;;10285325;28;20228;-83
2024/03/23 19:08:28;;;;;;;5.07;1.90;;;;;4.90;100383.00;;;;10306187;28;20224;-80
2024/03/23 19:13:30;;;;;;;4.03;1.73;;;;;4.80;100366.00;;;;10290021;28;20232;-82
2024/03/23 19:18:32;;;;;;;4.70;1.70;;;;;4.70;100374.00;;;;10270577;28;20227;-81
2024/03/23 19:23:34;;;;;;;3.43;1.70;;;;;4.80;100364.00;;;;10293186;28;20730;-81
2024/03/23 19:28:35;;;;;;;9.07;2.60;;;;;4.90;100375.00;;;;10282264;28;20228;-82
2024/03/23 19:33:36;;;;;;;2.63;1.50;;;;;5.00;100377.00;;;;10284083;28;20219;-82
2024/03/23 19:38:37;;;;;;;2.83;1.13;;;;;5.00;100374.00;;;;10296367;28;20224;-83
2024/03/23 19:43:38;;;;;;;4.90;1.47;;;;;5.10;100365.00;;;;10275614;28;20739;-82
2024/03/23 19:48:39;;;;;;;5.40;2.00;;;;;5.20;100362.00;;;;10288428;28;20672;-82
2024/03/23 19:53:40;;;;;;;5.37;2.50;;;;;5.20;100362.00;;;;10268574;28;20236;-82
2024/03/23 19:58:42;;;;;;;7.83;2.23;;;;;5.20;100360.00;;;;10287894;28;20223;-82
2024/03/23 20:03:49;;;;;;;5.97;2.07;;;;;5.30;100352.00;;;;10288265;28;20228;-82
2024/03/23 20:08:50;;;;;;;2.77;1.80;;;;;5.30;100348.00;;;;10294058;28;20736;-82
2024/03/23 20:13:51;;;;;;;6.50;2.23;;;;;5.40;100344.00;;;;10292916;28;20243;-81
2024/03/23 20:18:54;;;;;;;5.17;2.10;;;;;5.30;100341.00;;;;10276205;28;20231;-81
2024/03/23 20:23:56;;;;;;;3.87;1.93;;;;;5.20;100336.00;;;;10283962;28;20230;-81
2024/03/23 20:28:58;;;;;;;4.17;1.67;;;;;5.10;100330.00;;;;10288941;28;20300;-81
2024/03/23 20:33:59;;;;;;;3.57;2.17;;;;;5.20;100326.00;;;;10260011;28;20223;-82
2024/03/23 20:39:00;;;;;;;3.30;2.00;;;;;5.20;100317.00;;;;10284544;28;20639;-81
2024/03/23 20:44:02;;;;;;;6.67;1.90;;;;;5.20;100322.00;;;;10273289;28;20271;-82
2024/03/23 20:49:03;;;;;;;5.43;2.00;;;;;5.20;100321.00;;;;10279554;28;20226;-79
2024/03/23 20:54:04;;;;;;;4.77;1.60;;;;;5.10;100319.00;;;;10281400;28;20314;-79
2024/03/23 20:59:05;;;;;;;5.83;1.73;;;;;5.10;100322.00;;;;10296150;28;20913;-79
2024/03/23 21:04:06;;;;;;;7.47;2.30;;;;;5.00;100335.00;;;;10269425;28;20239;-79
2024/03/23 21:09:08;;;;;;;3.97;1.80;;;;;5.00;100345.00;;;;10284734;28;20232;-78
2024/03/23 21:14:09;;;;;;;6.07;2.17;;;;;5.10;100338.00;;;;10294625;28;20212;-78
2024/03/23 21:19:12;;;;;;;3.53;1.90;;;;;5.10;100347.00;;;;10258221;28;20212;-78
2024/03/23 21:24:13;;;;;;;5.90;1.93;;;;;5.00;100337.00;;;;10274636;28;20323;-78
2024/03/23 21:29:14;;;;;;;7.83;1.60;;;;;4.90;100320.00;;;;10276840;28;20286;-79
2024/03/23 21:34:15;;;;;;;4.10;1.90;;;;;4.80;100322.00;;;;10274794;28;20216;-78
2024/03/23 21:39:16;;;;;;;4.03;1.77;;;;;4.80;100321.00;;;;10275561;28;20984;-79
2024/03/23 21:44:20;;;;;;;6.07;2.03;;;;;4.70;100305.00;;;;10264731;28;20235;-77
2024/03/23 21:49:21;;;;;;;7.57;2.03;;;;;4.70;100315.00;;;;10289917;28;20302;-79
2024/03/23 21:54:22;;;;;;;2.53;1.97;;;;;4.80;100308.00;;;;10276477;28;20223;-79
2024/03/23 21:59:24;;;;;;;4.57;1.67;;;;;4.80;100296.00;;;;10301127;28;20223;-80
2024/03/23 22:04:25;;;;;;;4.37;1.60;;;;;4.70;100282.00;;;;10274383;28;20224;-79
2024/03/23 22:09:28;;;;;;;4.90;1.40;;;;;4.70;100291.00;;;;10278504;28;20220;-78
2024/03/23 22:14:30;;;;;;;5.50;2.40;;;;;4.70;100288.00;;;;10258877;28;20228;-78
2024/03/23 22:19:31;;;;;;;4.77;2.10;;;;;4.60;100286.00;;;;10277095;28;20231;-80
2024/03/23 22:24:32;;;;;;;6.37;2.13;;;;;4.60;100291.00;;;;10274415;28;20254;-78
2024/03/23 22:29:33;;;;;;;5.40;2.40;;;;;4.60;100290.00;;;;10285156;28;20221;-78
2024/03/23 22:34:40;;;;;;;5.70;2.17;;;;;4.70;100302.00;;;;10275733;28;20303;-78
2024/03/23 22:39:41;;;;;;;7.37;2.43;;;;;4.80;100280.00;;;;10279504;28;20788;-79
2024/03/23 22:44:42;;;;;;;5.43;2.40;;;;;4.90;100281.00;;;;10273446;28;20224;-79
2024/03/23 22:49:44;;;;;;;8.03;2.63;;;;;4.90;100281.00;;;;10276725;28;20228;-79
2024/03/23 22:54:45;;;;;;;7.57;2.50;;;;;4.90;100260.00;;;;10278227;28;20223;-79
2024/03/23 22:59:46;;;;;;;9.43;2.70;;;;;4.80;100265.00;;;;10264324;28;20256;-79
2024/03/23 23:04:49;;;;;;;4.90;2.17;;;;;4.70;100245.00;;;;10258161;28;20828;-79
2024/03/23 23:09:50;;;;;;;5.33;2.87;;;;;4.60;100238.00;;;;10295466;28;20705;-79
2024/03/23 23:14:52;;;;;;;4.90;2.13;;;;;4.50;100237.00;;;;10296520;28;20231;-80
2024/03/23 23:19:53;;;;;;;7.83;2.60;;;;;4.40;100225.00;;;;10274736;28;20236;-78
2024/03/23 23:24:54;;;;;;;4.43;2.47;;;;;4.40;100227.00;;;;10262730;28;20236;-79
2024/03/23 23:29:55;;;;;;;10.70;3.23;;;;;4.40;100219.00;;;;10298211;28;20840;-78
2024/03/23 23:35:01;;;;;;;6.90;2.73;;;;;4.40;100215.00;;;;10269186;28;20262;-78
2024/03/23 23:40:03;;;;;;;5.67;2.80;;;;;4.30;100213.00;;;;10295936;28;20216;-78
2024/03/23 23:45:05;;;;;;;6.97;2.67;;;;;4.30;100194.00;;;;10264918;28;20224;-78
2024/03/23 23:50:06;;;;;;;7.57;2.73;;;;;4.30;100197.00;;;;10283178;28;21329;-79
2024/03/23 23:55:08;;;;;;;5.10;2.53;;;;;4.30;100199.00;;;;10280967;28;20273;-78
